Weather at Würenlingen Heliport [CLOSED]

Public forecast

Using degrees Celsius for public forecast. Weather courtesy of forecast.io.

Closest aviation weather report (METAR) to Würenlingen Heliport

Closest report is Zürich Airport, 13.1 nm (24.2 km) ESE.

2024/03/01 01:50 (retrieved 11 minutes ago)

LSZH 010150Z AUTO 13004KT 7000 NCD 03/03 Q1007 NOSIG

Closest aviation forecast (TAF) to Würenlingen Heliport

Forecast is more than 6 hours old.

Closest forecast is Emmen Air Base, 25.6 nm (47.4 km) S.

2024/02/29 17:00 (retrieved 9 hours ago)

TAF LSME 291625Z 2917/0123 VRB02KT CAVOK BECMG 2920/2923 9999 BKN050 TEMPO 0100/0113 RA PROB30 TEMPO 0106/0111 4000 BKN014